TKJ3223 LTCS-LTFJ
Flight info
| Callsign | TKJ3223 |
|---|---|
| Flight time | 1h 26m |
| Altitude | 36000 |
| Route | BADEM W103 TEKMI UW103 ERH UW73 GEM DCT NEGBU UT329 TOKER |
| Aircraft | B738/M-SDE2E3FGHIRWXY/LB1 |
Departure
| Time | 2026-05-05 09:46 |
|---|---|
| Airport | Şanlıurfa GAP Airport (LTCS) |
Arrival
| Time | 2026-05-05 11:12 |
|---|---|
| Airport | Istanbul Sabiha Gökçen International Airport (LTFJ) |
| Time | Latitude | Longitude | Altitude | Speed | Heading |
|---|---|---|---|---|---|
| 2026-05-05 09:31 | 37.44572 | 38.90376 | 2719 ft | 0 kts | 175° |
| 2026-05-05 09:39 | 37.44570 | 38.90377 | 2709 ft | 1 kts | 175° |
| 2026-05-05 09:40 | 37.44561 | 38.90370 | 2724 ft | 2 kts | 220° |
| 2026-05-05 09:40 | 37.44562 | 38.90351 | 2723 ft | 3 kts | 299° |
| 2026-05-05 09:40 | 37.44581 | 38.90346 | 2722 ft | 4 kts | 356° |
| 2026-05-05 09:40 | 37.44614 | 38.90345 | 2721 ft | 6 kts | 359° |
| 2026-05-05 09:41 | 37.44661 | 38.90344 | 2714 ft | 8 kts | 359° |
| 2026-05-05 09:41 | 37.44719 | 38.90334 | 2714 ft | 9 kts | 333° |
| 2026-05-05 09:41 | 37.44768 | 38.90270 | 2709 ft | 11 kts | 311° |
| 2026-05-05 09:41 | 37.44825 | 38.90188 | 2719 ft | 14 kts | 311° |
| 2026-05-05 09:42 | 37.44894 | 38.90094 | 2720 ft | 16 kts | 312° |
| 2026-05-05 09:42 | 37.44995 | 38.90060 | 2708 ft | 17 kts | 27° |
| 2026-05-05 09:42 | 37.45085 | 38.90155 | 2717 ft | 17 kts | 42° |
| 2026-05-05 09:42 | 37.45167 | 38.90249 | 2716 ft | 16 kts | 41° |
| 2026-05-05 09:43 | 37.45250 | 38.90339 | 2714 ft | 15 kts | 41° |
| 2026-05-05 09:43 | 37.45328 | 38.90427 | 2718 ft | 15 kts | 42° |
| 2026-05-05 09:43 | 37.45402 | 38.90512 | 2723 ft | 15 kts | 42° |
| 2026-05-05 09:43 | 37.45480 | 38.90599 | 2727 ft | 15 kts | 41° |
| 2026-05-05 09:44 | 37.45557 | 38.90686 | 2726 ft | 15 kts | 41° |
| 2026-05-05 09:44 | 37.45644 | 38.90782 | 2725 ft | 18 kts | 41° |
| 2026-05-05 09:44 | 37.45745 | 38.90896 | 2721 ft | 21 kts | 41° |
| 2026-05-05 09:44 | 37.45861 | 38.91026 | 2727 ft | 23 kts | 42° |
| 2026-05-05 09:45 | 37.45979 | 38.91158 | 2728 ft | 22 kts | 42° |
| 2026-05-05 09:45 | 37.46062 | 38.91312 | 2727 ft | 22 kts | 81° |
| 2026-05-05 09:45 | 37.46127 | 38.91327 | 2731 ft | 17 kts | 237° |
| 2026-05-05 09:45 | 37.46025 | 38.91209 | 2726 ft | 39 kts | 222° |
| 2026-05-05 09:46 | 37.45638 | 38.90775 | 2727 ft | 109 kts | 221° |
| 2026-05-05 09:46 | 37.44917 | 38.89979 | 2723 ft | 165 kts | 216° |
| 2026-05-05 09:46 | 37.43993 | 38.89024 | 3309 ft | 173 kts | 218° |
| 2026-05-05 09:46 | 37.43069 | 38.87976 | 3999 ft | 181 kts | 219° |
| 2026-05-05 09:47 | 37.42166 | 38.86865 | 4722 ft | 189 kts | 224° |
| 2026-05-05 09:47 | 37.41398 | 38.85406 | 4908 ft | 215 kts | 251° |
| 2026-05-05 09:47 | 37.41380 | 38.83440 | 5082 ft | 241 kts | 284° |
| 2026-05-05 09:47 | 37.42265 | 38.81552 | 5277 ft | 266 kts | 314° |
| 2026-05-05 09:48 | 37.43779 | 38.80100 | 5757 ft | 280 kts | 324° |
| 2026-05-05 09:48 | 37.45408 | 38.78739 | 6601 ft | 280 kts | 325° |
| 2026-05-05 09:48 | 37.47039 | 38.77358 | 7336 ft | 284 kts | 324° |
| 2026-05-05 09:48 | 37.48666 | 38.75974 | 8008 ft | 288 kts | 324° |
| 2026-05-05 09:49 | 37.50340 | 38.74550 | 8715 ft | 292 kts | 324° |
| 2026-05-05 09:49 | 37.52037 | 38.73109 | 9436 ft | 296 kts | 324° |
| 2026-05-05 09:49 | 37.53756 | 38.71648 | 10136 ft | 300 kts | 324° |
| 2026-05-05 09:49 | 37.55549 | 38.70124 | 10414 ft | 322 kts | 324° |
| 2026-05-05 09:50 | 37.57470 | 38.68489 | 10608 ft | 343 kts | 324° |
| 2026-05-05 09:50 | 37.59474 | 38.66762 | 11080 ft | 354 kts | 321° |
| 2026-05-05 09:50 | 37.61279 | 38.64644 | 11729 ft | 356 kts | 308° |
| 2026-05-05 09:50 | 37.62765 | 38.62148 | 12479 ft | 357 kts | 304° |
| 2026-05-05 09:51 | 37.64236 | 38.59597 | 13140 ft | 362 kts | 304° |
| 2026-05-05 09:51 | 37.65722 | 38.57060 | 13788 ft | 367 kts | 306° |
| 2026-05-05 09:51 | 37.67356 | 38.54556 | 14445 ft | 370 kts | 308° |
| 2026-05-05 09:51 | 37.69031 | 38.52081 | 15193 ft | 371 kts | 308° |
| 2026-05-05 09:52 | 37.70705 | 38.49599 | 15919 ft | 372 kts | 308° |
| 2026-05-05 09:52 | 37.72576 | 38.47315 | 16617 ft | 378 kts | 319° |
| 2026-05-05 09:52 | 37.74789 | 38.45478 | 17302 ft | 385 kts | 329° |
| 2026-05-05 09:52 | 37.77258 | 38.44104 | 17997 ft | 390 kts | 335° |
| 2026-05-05 09:53 | 37.79803 | 38.42848 | 18599 ft | 394 kts | 335° |
| 2026-05-05 09:53 | 37.82372 | 38.41584 | 19139 ft | 399 kts | 335° |
| 2026-05-05 09:53 | 37.84961 | 38.40274 | 19688 ft | 403 kts | 334° |
| 2026-05-05 09:53 | 37.87564 | 38.38933 | 20239 ft | 406 kts | 334° |
| 2026-05-05 09:54 | 37.90205 | 38.37607 | 20767 ft | 410 kts | 335° |
| 2026-05-05 09:54 | 37.92893 | 38.36321 | 21265 ft | 414 kts | 336° |
| 2026-05-05 09:54 | 37.95607 | 38.35031 | 21764 ft | 418 kts | 336° |
| 2026-05-05 09:54 | 37.98343 | 38.33740 | 22284 ft | 422 kts | 336° |
| 2026-05-05 09:55 | 38.01111 | 38.32447 | 22812 ft | 426 kts | 336° |
| 2026-05-05 09:55 | 38.03900 | 38.31149 | 23273 ft | 429 kts | 336° |
| 2026-05-05 09:55 | 38.06719 | 38.29835 | 23689 ft | 433 kts | 336° |
| 2026-05-05 09:55 | 38.09526 | 38.28524 | 24087 ft | 436 kts | 336° |
| 2026-05-05 09:56 | 38.12381 | 38.27188 | 24493 ft | 439 kts | 336° |
| 2026-05-05 09:56 | 38.15256 | 38.25840 | 24902 ft | 441 kts | 335° |
| 2026-05-05 09:56 | 38.18146 | 38.24482 | 25265 ft | 445 kts | 335° |
| 2026-05-05 09:56 | 38.21057 | 38.23114 | 25643 ft | 448 kts | 335° |
| 2026-05-05 09:57 | 38.23986 | 38.21737 | 26001 ft | 451 kts | 335° |
| 2026-05-05 09:57 | 38.26941 | 38.20350 | 26318 ft | 454 kts | 335° |
| 2026-05-05 09:57 | 38.29915 | 38.18947 | 26640 ft | 457 kts | 335° |
| 2026-05-05 09:57 | 38.32902 | 38.17535 | 26999 ft | 459 kts | 335° |
| 2026-05-05 09:58 | 38.35906 | 38.16116 | 27355 ft | 462 kts | 335° |
| 2026-05-05 09:58 | 38.38929 | 38.14688 | 27716 ft | 464 kts | 335° |
| 2026-05-05 09:58 | 38.41967 | 38.13237 | 28040 ft | 466 kts | 333° |
| 2026-05-05 09:58 | 38.44765 | 38.11229 | 28301 ft | 459 kts | 316° |
| 2026-05-05 09:59 | 38.46986 | 38.08381 | 28636 ft | 449 kts | 301° |
| 2026-05-05 09:59 | 38.48582 | 38.05020 | 28975 ft | 440 kts | 288° |
| 2026-05-05 09:59 | 38.49796 | 38.01431 | 29308 ft | 440 kts | 287° |
| 2026-05-05 09:59 | 38.50967 | 37.97860 | 29572 ft | 443 kts | 286° |
| 2026-05-05 10:00 | 38.52160 | 37.94214 | 29819 ft | 446 kts | 287° |
| 2026-05-05 10:00 | 38.53367 | 37.90565 | 30172 ft | 445 kts | 287° |
| 2026-05-05 10:00 | 38.54583 | 37.86935 | 30607 ft | 442 kts | 287° |
| 2026-05-05 10:00 | 38.55797 | 37.83337 | 31040 ft | 440 kts | 287° |
| 2026-05-05 10:01 | 38.57011 | 37.79749 | 31396 ft | 439 kts | 288° |
| 2026-05-05 10:01 | 38.58224 | 37.76166 | 31725 ft | 439 kts | 288° |
| 2026-05-05 10:01 | 38.59432 | 37.72597 | 32126 ft | 437 kts | 288° |
| 2026-05-05 10:01 | 38.60638 | 37.69029 | 32442 ft | 437 kts | 288° |
| 2026-05-05 10:02 | 38.61843 | 37.65458 | 32720 ft | 437 kts | 288° |
| 2026-05-05 10:02 | 38.63045 | 37.61890 | 33066 ft | 436 kts | 288° |
| 2026-05-05 10:02 | 38.64241 | 37.58336 | 33469 ft | 433 kts | 288° |
| 2026-05-05 10:02 | 38.65431 | 37.54799 | 33836 ft | 432 kts | 289° |
| 2026-05-05 10:03 | 38.66613 | 37.51276 | 34095 ft | 432 kts | 289° |
| 2026-05-05 10:03 | 38.67784 | 37.47779 | 34281 ft | 433 kts | 289° |
| 2026-05-05 10:03 | 38.68972 | 37.44226 | 34415 ft | 436 kts | 289° |
| 2026-05-05 10:03 | 38.70168 | 37.40649 | 34584 ft | 438 kts | 289° |
| 2026-05-05 10:04 | 38.71365 | 37.37064 | 34840 ft | 437 kts | 289° |
| 2026-05-05 10:04 | 38.72558 | 37.33492 | 35076 ft | 436 kts | 289° |
| 2026-05-05 10:04 | 38.73752 | 37.29909 | 35281 ft | 437 kts | 290° |
| 2026-05-05 10:04 | 38.74945 | 37.26322 | 35451 ft | 438 kts | 290° |
| 2026-05-05 10:05 | 38.76138 | 37.22732 | 35666 ft | 438 kts | 290° |
| 2026-05-05 10:05 | 38.77332 | 37.19137 | 35844 ft | 440 kts | 290° |
| 2026-05-05 10:05 | 38.79729 | 37.11909 | 35901 ft | 439 kts | 290° |
| 2026-05-05 10:06 | 38.82133 | 37.04694 | 35915 ft | 440 kts | 290° |
| 2026-05-05 10:06 | 38.84536 | 36.97470 | 35911 ft | 441 kts | 290° |
| 2026-05-05 10:07 | 38.86940 | 36.90218 | 35910 ft | 442 kts | 290° |
| 2026-05-05 10:07 | 38.89346 | 36.82941 | 35909 ft | 443 kts | 290° |
| 2026-05-05 10:08 | 38.91738 | 36.75689 | 35901 ft | 444 kts | 290° |
| 2026-05-05 10:08 | 38.94140 | 36.68384 | 35908 ft | 444 kts | 291° |
| 2026-05-05 10:09 | 38.96545 | 36.61053 | 35908 ft | 445 kts | 290° |
| 2026-05-05 10:09 | 38.98946 | 36.53714 | 35905 ft | 445 kts | 290° |
| 2026-05-05 10:10 | 39.01341 | 36.46378 | 35907 ft | 445 kts | 290° |
| 2026-05-05 10:10 | 39.03711 | 36.39094 | 35907 ft | 445 kts | 291° |
| 2026-05-05 10:11 | 39.06094 | 36.31754 | 35904 ft | 444 kts | 291° |
| 2026-05-05 10:11 | 39.08468 | 36.24424 | 35906 ft | 444 kts | 291° |
| 2026-05-05 10:12 | 39.10836 | 36.17090 | 35909 ft | 443 kts | 291° |
| 2026-05-05 10:12 | 39.13196 | 36.09765 | 35911 ft | 443 kts | 291° |
| 2026-05-05 10:13 | 39.15538 | 36.02430 | 35912 ft | 442 kts | 289° |
| 2026-05-05 10:13 | 39.17534 | 35.94955 | 35921 ft | 441 kts | 286° |
| 2026-05-05 10:14 | 39.19380 | 35.87412 | 35919 ft | 441 kts | 286° |
| 2026-05-05 10:14 | 39.21235 | 35.79871 | 35933 ft | 441 kts | 287° |
| 2026-05-05 10:15 | 39.23096 | 35.72400 | 35933 ft | 441 kts | 287° |
| 2026-05-05 10:15 | 39.24981 | 35.64864 | 35935 ft | 441 kts | 287° |
| 2026-05-05 10:16 | 39.26862 | 35.57331 | 35937 ft | 441 kts | 287° |
| 2026-05-05 10:16 | 39.28738 | 35.49795 | 35938 ft | 441 kts | 287° |
| 2026-05-05 10:17 | 39.30610 | 35.42247 | 35946 ft | 441 kts | 287° |
| 2026-05-05 10:17 | 39.32471 | 35.34722 | 35952 ft | 440 kts | 288° |
| 2026-05-05 10:18 | 39.34327 | 35.27188 | 35950 ft | 440 kts | 288° |
| 2026-05-05 10:18 | 39.36179 | 35.19652 | 35964 ft | 439 kts | 288° |
| 2026-05-05 10:19 | 39.38023 | 35.12120 | 35966 ft | 439 kts | 288° |
| 2026-05-05 10:19 | 39.39862 | 35.04587 | 35958 ft | 440 kts | 288° |
| 2026-05-05 10:20 | 39.41696 | 34.97050 | 35975 ft | 440 kts | 288° |
| 2026-05-05 10:20 | 39.43518 | 34.89539 | 35978 ft | 440 kts | 288° |
| 2026-05-05 10:21 | 39.45346 | 34.81981 | 35981 ft | 441 kts | 288° |
| 2026-05-05 10:21 | 39.47170 | 34.74411 | 35991 ft | 441 kts | 288° |
| 2026-05-05 10:22 | 39.48699 | 34.68051 | 35986 ft | 441 kts | 288° |
| 2026-05-05 10:22 | 39.50505 | 34.60515 | 35992 ft | 441 kts | 288° |
| 2026-05-05 10:23 | 39.52330 | 34.52871 | 35989 ft | 441 kts | 288° |
| 2026-05-05 10:23 | 39.54139 | 34.45273 | 35995 ft | 441 kts | 288° |
| 2026-05-05 10:24 | 39.55929 | 34.37728 | 35994 ft | 441 kts | 288° |
| 2026-05-05 10:24 | 39.57554 | 34.30857 | 35993 ft | 440 kts | 288° |
| 2026-05-05 10:25 | 39.59153 | 34.24084 | 35993 ft | 440 kts | 288° |
| 2026-05-05 10:25 | 39.60717 | 34.17435 | 35994 ft | 439 kts | 288° |
| 2026-05-05 10:26 | 39.62320 | 34.10600 | 35988 ft | 439 kts | 288° |
| 2026-05-05 10:26 | 39.64091 | 34.03022 | 35993 ft | 438 kts | 288° |
| 2026-05-05 10:27 | 39.65844 | 33.95495 | 35994 ft | 438 kts | 288° |
| 2026-05-05 10:27 | 39.67600 | 33.87931 | 35988 ft | 437 kts | 289° |
| 2026-05-05 10:28 | 39.69348 | 33.80379 | 35986 ft | 436 kts | 289° |
| 2026-05-05 10:28 | 39.71088 | 33.72837 | 35987 ft | 436 kts | 289° |
| 2026-05-05 10:29 | 39.72821 | 33.65300 | 35978 ft | 435 kts | 289° |
| 2026-05-05 10:29 | 39.74545 | 33.57775 | 35977 ft | 435 kts | 289° |
| 2026-05-05 10:30 | 39.76266 | 33.50243 | 35976 ft | 434 kts | 289° |
| 2026-05-05 10:30 | 39.77978 | 33.42721 | 35980 ft | 434 kts | 289° |
| 2026-05-05 10:31 | 39.79634 | 33.35421 | 35975 ft | 434 kts | 289° |
| 2026-05-05 10:31 | 39.81340 | 33.27879 | 35972 ft | 434 kts | 289° |
| 2026-05-05 10:32 | 39.83040 | 33.20338 | 35968 ft | 434 kts | 289° |
| 2026-05-05 10:32 | 39.84734 | 33.12796 | 35958 ft | 434 kts | 289° |
| 2026-05-05 10:33 | 39.86424 | 33.05247 | 35972 ft | 434 kts | 289° |
| 2026-05-05 10:33 | 39.88102 | 32.97728 | 35959 ft | 435 kts | 289° |
| 2026-05-05 10:34 | 39.89786 | 32.90154 | 35967 ft | 436 kts | 289° |
| 2026-05-05 10:34 | 39.91465 | 32.82573 | 35965 ft | 436 kts | 289° |
| 2026-05-05 10:35 | 39.93141 | 32.74986 | 35958 ft | 435 kts | 289° |
| 2026-05-05 10:35 | 39.94811 | 32.67400 | 35961 ft | 435 kts | 289° |
| 2026-05-05 10:36 | 39.96473 | 32.59819 | 35949 ft | 434 kts | 290° |
| 2026-05-05 10:36 | 39.98126 | 32.52258 | 35954 ft | 433 kts | 290° |
| 2026-05-05 10:37 | 39.99769 | 32.44714 | 35970 ft | 432 kts | 290° |
| 2026-05-05 10:37 | 40.01407 | 32.37174 | 35965 ft | 431 kts | 289° |
| 2026-05-05 10:38 | 40.02925 | 32.29606 | 35967 ft | 430 kts | 288° |
| 2026-05-05 10:38 | 40.04352 | 32.22095 | 35966 ft | 429 kts | 288° |
| 2026-05-05 10:39 | 40.05788 | 32.14550 | 35973 ft | 427 kts | 288° |
| 2026-05-05 10:39 | 40.07226 | 32.07028 | 35960 ft | 426 kts | 288° |
| 2026-05-05 10:40 | 40.08662 | 31.99521 | 35975 ft | 425 kts | 288° |
| 2026-05-05 10:40 | 40.10092 | 31.92022 | 35977 ft | 423 kts | 288° |
| 2026-05-05 10:41 | 40.11483 | 31.84679 | 35619 ft | 411 kts | 289° |
| 2026-05-05 10:41 | 40.12161 | 31.81087 | 35269 ft | 405 kts | 289° |
| 2026-05-05 10:41 | 40.12834 | 31.77526 | 34889 ft | 402 kts | 289° |
| 2026-05-05 10:42 | 40.14152 | 31.70532 | 34174 ft | 396 kts | 290° |
| 2026-05-05 10:42 | 40.14808 | 31.67047 | 33761 ft | 394 kts | 290° |
| 2026-05-05 10:42 | 40.15461 | 31.63574 | 33343 ft | 391 kts | 290° |
| 2026-05-05 10:43 | 40.16105 | 31.60133 | 32966 ft | 388 kts | 290° |
| 2026-05-05 10:43 | 40.16742 | 31.56727 | 32601 ft | 384 kts | 290° |
| 2026-05-05 10:43 | 40.17371 | 31.53353 | 32235 ft | 380 kts | 290° |
| 2026-05-05 10:43 | 40.17995 | 31.50007 | 31880 ft | 376 kts | 290° |
| 2026-05-05 10:44 | 40.18609 | 31.46706 | 31549 ft | 372 kts | 290° |
| 2026-05-05 10:44 | 40.19217 | 31.43430 | 31203 ft | 369 kts | 290° |
| 2026-05-05 10:44 | 40.19821 | 31.40175 | 30864 ft | 366 kts | 290° |
| 2026-05-05 10:44 | 40.20417 | 31.36958 | 30526 ft | 363 kts | 290° |
| 2026-05-05 10:45 | 40.21007 | 31.33761 | 30199 ft | 360 kts | 290° |
| 2026-05-05 10:45 | 40.21594 | 31.30586 | 29807 ft | 357 kts | 289° |
| 2026-05-05 10:45 | 40.22175 | 31.27437 | 29490 ft | 354 kts | 289° |
| 2026-05-05 10:45 | 40.22748 | 31.24319 | 29075 ft | 351 kts | 289° |
| 2026-05-05 10:46 | 40.23316 | 31.21226 | 28742 ft | 347 kts | 289° |
| 2026-05-05 10:46 | 40.23867 | 31.18215 | 28400 ft | 343 kts | 289° |
| 2026-05-05 10:46 | 40.24421 | 31.15189 | 28075 ft | 339 kts | 289° |
| 2026-05-05 10:46 | 40.24966 | 31.12205 | 27714 ft | 336 kts | 289° |
| 2026-05-05 10:47 | 40.25509 | 31.09224 | 27382 ft | 334 kts | 288° |
| 2026-05-05 10:47 | 40.26046 | 31.06281 | 27038 ft | 332 kts | 288° |
| 2026-05-05 10:47 | 40.26579 | 31.03354 | 26708 ft | 329 kts | 288° |
| 2026-05-05 10:47 | 40.27107 | 31.00446 | 26386 ft | 327 kts | 288° |
| 2026-05-05 10:48 | 40.27630 | 30.97561 | 26054 ft | 325 kts | 288° |
| 2026-05-05 10:48 | 40.28150 | 30.94690 | 25699 ft | 323 kts | 287° |
| 2026-05-05 10:48 | 40.28663 | 30.91848 | 25416 ft | 319 kts | 287° |
| 2026-05-05 10:48 | 40.29166 | 30.89063 | 25097 ft | 318 kts | 287° |
| 2026-05-05 10:49 | 40.29680 | 30.86217 | 24784 ft | 316 kts | 287° |
| 2026-05-05 10:49 | 40.30184 | 30.83418 | 24468 ft | 315 kts | 287° |
| 2026-05-05 10:49 | 40.30684 | 30.80636 | 24146 ft | 313 kts | 287° |
| 2026-05-05 10:49 | 40.31180 | 30.77869 | 23844 ft | 311 kts | 287° |
| 2026-05-05 10:50 | 40.31587 | 30.75087 | 23527 ft | 311 kts | 283° |
| 2026-05-05 10:50 | 40.31901 | 30.72287 | 23187 ft | 310 kts | 282° |
| 2026-05-05 10:50 | 40.32189 | 30.69536 | 22859 ft | 309 kts | 282° |
| 2026-05-05 10:50 | 40.32482 | 30.66747 | 22534 ft | 309 kts | 282° |
| 2026-05-05 10:51 | 40.32779 | 30.63955 | 22224 ft | 311 kts | 282° |
| 2026-05-05 10:51 | 40.33088 | 30.61108 | 21929 ft | 321 kts | 282° |
| 2026-05-05 10:51 | 40.33409 | 30.58169 | 21595 ft | 328 kts | 282° |
| 2026-05-05 10:51 | 40.33731 | 30.55209 | 21241 ft | 327 kts | 282° |
| 2026-05-05 10:52 | 40.34051 | 30.52262 | 20897 ft | 326 kts | 282° |
| 2026-05-05 10:52 | 40.34463 | 30.49361 | 20530 ft | 321 kts | 292° |
| 2026-05-05 10:52 | 40.35502 | 30.46816 | 20115 ft | 315 kts | 313° |
| 2026-05-05 10:52 | 40.37164 | 30.45007 | 19743 ft | 310 kts | 332° |
| 2026-05-05 10:53 | 40.39053 | 30.43649 | 19427 ft | 309 kts | 333° |
| 2026-05-05 10:53 | 40.40923 | 30.42259 | 19060 ft | 309 kts | 332° |
| 2026-05-05 10:53 | 40.42789 | 30.40841 | 18712 ft | 309 kts | 332° |
| 2026-05-05 10:53 | 40.44618 | 30.39437 | 18357 ft | 309 kts | 332° |
| 2026-05-05 10:54 | 40.46501 | 30.37997 | 17881 ft | 313 kts | 332° |
| 2026-05-05 10:54 | 40.48390 | 30.36558 | 17602 ft | 310 kts | 332° |
| 2026-05-05 10:54 | 40.50246 | 30.35150 | 17317 ft | 307 kts | 332° |
| 2026-05-05 10:54 | 40.52068 | 30.33773 | 16982 ft | 306 kts | 332° |
| 2026-05-05 10:55 | 40.53945 | 30.32467 | 16656 ft | 304 kts | 335° |
| 2026-05-05 10:55 | 40.55841 | 30.31248 | 16357 ft | 303 kts | 335° |
| 2026-05-05 10:55 | 40.57737 | 30.30050 | 16050 ft | 301 kts | 336° |
| 2026-05-05 10:55 | 40.59627 | 30.28865 | 15742 ft | 300 kts | 336° |
| 2026-05-05 10:56 | 40.61510 | 30.27693 | 15430 ft | 299 kts | 336° |
| 2026-05-05 10:56 | 40.63387 | 30.26531 | 15109 ft | 298 kts | 336° |
| 2026-05-05 10:56 | 40.65261 | 30.25379 | 14813 ft | 297 kts | 336° |
| 2026-05-05 10:56 | 40.67128 | 30.24236 | 14516 ft | 295 kts | 336° |
| 2026-05-05 10:57 | 40.68991 | 30.23101 | 14217 ft | 294 kts | 336° |
| 2026-05-05 10:57 | 40.70847 | 30.21977 | 13925 ft | 293 kts | 336° |
| 2026-05-05 10:57 | 40.72698 | 30.20864 | 13637 ft | 292 kts | 337° |
| 2026-05-05 10:57 | 40.74564 | 30.19900 | 13301 ft | 290 kts | 340° |
| 2026-05-05 10:58 | 40.76461 | 30.19001 | 13015 ft | 287 kts | 342° |
| 2026-05-05 10:58 | 40.78357 | 30.18286 | 12880 ft | 278 kts | 349° |
| 2026-05-05 10:58 | 40.80255 | 30.17962 | 12712 ft | 276 kts | 355° |
| 2026-05-05 10:58 | 40.82188 | 30.17825 | 12447 ft | 280 kts | 359° |
| 2026-05-05 10:59 | 40.84148 | 30.17839 | 12209 ft | 284 kts | 0° |
| 2026-05-05 10:59 | 40.86131 | 30.17884 | 12001 ft | 285 kts | 1° |
| 2026-05-05 10:59 | 40.88099 | 30.17944 | 11792 ft | 281 kts | 3° |
| 2026-05-05 10:59 | 40.90046 | 30.18158 | 11510 ft | 279 kts | 5° |
| 2026-05-05 11:00 | 40.91973 | 30.18429 | 11207 ft | 278 kts | 6° |
| 2026-05-05 11:00 | 40.93887 | 30.18716 | 10903 ft | 277 kts | 6° |
| 2026-05-05 11:00 | 40.95793 | 30.19010 | 10671 ft | 273 kts | 6° |
| 2026-05-05 11:00 | 40.97651 | 30.19300 | 10567 ft | 264 kts | 6° |
| 2026-05-05 11:01 | 40.99478 | 30.19174 | 10290 ft | 267 kts | 339° |
| 2026-05-05 11:01 | 41.00941 | 30.17704 | 10074 ft | 270 kts | 305° |
| 2026-05-05 11:01 | 41.01555 | 30.15350 | 9844 ft | 275 kts | 279° |
| 2026-05-05 11:01 | 41.01728 | 30.12817 | 9591 ft | 278 kts | 275° |
| 2026-05-05 11:02 | 41.01847 | 30.10263 | 9329 ft | 277 kts | 275° |
| 2026-05-05 11:02 | 41.01959 | 30.07734 | 9071 ft | 274 kts | 275° |
| 2026-05-05 11:02 | 41.02073 | 30.05229 | 8819 ft | 272 kts | 275° |
| 2026-05-05 11:02 | 41.02202 | 30.02734 | 8594 ft | 271 kts | 275° |
| 2026-05-05 11:03 | 41.02333 | 30.00225 | 8305 ft | 273 kts | 275° |
| 2026-05-05 11:03 | 41.02464 | 29.97721 | 8086 ft | 272 kts | 278° |
| 2026-05-05 11:03 | 41.02660 | 29.95261 | 7802 ft | 273 kts | 276° |
| 2026-05-05 11:03 | 41.02779 | 29.92761 | 7553 ft | 271 kts | 275° |
| 2026-05-05 11:04 | 41.02889 | 29.90302 | 7284 ft | 264 kts | 276° |
| 2026-05-05 11:04 | 41.03005 | 29.87889 | 7041 ft | 262 kts | 276° |
| 2026-05-05 11:04 | 41.03130 | 29.85475 | 6783 ft | 262 kts | 276° |
| 2026-05-05 11:04 | 41.03253 | 29.83076 | 6526 ft | 260 kts | 276° |
| 2026-05-05 11:05 | 41.03378 | 29.80699 | 6261 ft | 257 kts | 277° |
| 2026-05-05 11:05 | 41.03504 | 29.78345 | 6013 ft | 255 kts | 277° |
| 2026-05-05 11:05 | 41.03628 | 29.76008 | 5759 ft | 254 kts | 276° |
| 2026-05-05 11:05 | 41.03752 | 29.73684 | 5502 ft | 252 kts | 276° |
| 2026-05-05 11:06 | 41.03871 | 29.71373 | 5240 ft | 251 kts | 277° |
| 2026-05-05 11:06 | 41.03798 | 29.69075 | 4954 ft | 253 kts | 255° |
| 2026-05-05 11:06 | 41.03077 | 29.66986 | 4740 ft | 252 kts | 247° |
| 2026-05-05 11:06 | 41.02344 | 29.64874 | 4512 ft | 253 kts | 248° |
| 2026-05-05 11:07 | 41.01610 | 29.62760 | 4406 ft | 249 kts | 248° |
| 2026-05-05 11:07 | 41.00866 | 29.60727 | 4404 ft | 242 kts | 246° |
| 2026-05-05 11:07 | 41.00135 | 29.58767 | 4355 ft | 233 kts | 246° |
| 2026-05-05 11:07 | 40.99437 | 29.56888 | 4345 ft | 221 kts | 247° |
| 2026-05-05 11:08 | 40.98782 | 29.55118 | 4269 ft | 210 kts | 247° |
| 2026-05-05 11:08 | 40.98145 | 29.53395 | 4032 ft | 205 kts | 248° |
| 2026-05-05 11:08 | 40.97527 | 29.51723 | 3813 ft | 199 kts | 247° |
| 2026-05-05 11:08 | 40.96926 | 29.50100 | 3603 ft | 193 kts | 248° |
| 2026-05-05 11:09 | 40.96353 | 29.48549 | 3389 ft | 183 kts | 247° |
| 2026-05-05 11:09 | 40.95808 | 29.47073 | 3115 ft | 174 kts | 247° |
| 2026-05-05 11:09 | 40.95459 | 29.46128 | 2938 ft | 170 kts | 247° |
| 2026-05-05 11:09 | 40.94788 | 29.44309 | 2585 ft | 162 kts | 246° |
| 2026-05-05 11:10 | 40.94455 | 29.43408 | 2445 ft | 162 kts | 246° |
| 2026-05-05 11:10 | 40.93967 | 29.42083 | 2191 ft | 160 kts | 246° |
| 2026-05-05 11:10 | 40.93486 | 29.40781 | 1931 ft | 156 kts | 246° |
| 2026-05-05 11:10 | 40.93016 | 29.39505 | 1702 ft | 152 kts | 246° |
| 2026-05-05 11:11 | 40.92554 | 29.38251 | 1469 ft | 151 kts | 245° |
| 2026-05-05 11:11 | 40.92089 | 29.36989 | 1232 ft | 154 kts | 245° |
| 2026-05-05 11:11 | 40.91634 | 29.35754 | 994 ft | 149 kts | 245° |
| 2026-05-05 11:11 | 40.91188 | 29.34545 | 781 ft | 145 kts | 244° |
| 2026-05-05 11:12 | 40.90756 | 29.33367 | 549 ft | 141 kts | 245° |
| 2026-05-05 11:12 | 40.90347 | 29.32246 | 323 ft | 139 kts | 245° |
| 2026-05-05 11:12 | 40.89981 | 29.31257 | 310 ft | 92 kts | 243° |
| 2026-05-05 11:12 | 40.89840 | 29.30871 | 311 ft | 27 kts | 252° |
| 2026-05-05 11:13 | 40.89818 | 29.30661 | 311 ft | 20 kts | 269° |
| 2026-05-05 11:13 | 40.89820 | 29.30486 | 309 ft | 17 kts | 276° |
| 2026-05-05 11:13 | 40.89902 | 29.30480 | 309 ft | 17 kts | 62° |
| 2026-05-05 11:13 | 40.89953 | 29.30612 | 309 ft | 16 kts | 63° |
| 2026-05-05 11:14 | 40.89999 | 29.30743 | 310 ft | 15 kts | 66° |